createdAt,value
2023-04-14T00:00:28.135Z,99027.09
2023-04-14T00:02:56.136Z,99036.09
2023-04-14T00:05:24.080Z,99030.19
2023-04-14T00:07:51.685Z,99035.44
2023-04-14T00:10:19.926Z,99033.63
2023-04-14T00:12:47.699Z,99029.50
2023-04-14T00:15:16.969Z,99035.56
2023-04-14T00:17:44.933Z,99035.13
2023-04-14T00:20:12.740Z,99031.47
2023-04-14T00:22:40.508Z,99032.72
2023-04-14T00:25:08.735Z,99035.75
2023-04-14T00:27:36.371Z,99038.16
2023-04-14T00:30:05.446Z,99047.44
2023-04-14T00:32:34.511Z,99043.38
2023-04-14T00:35:03.491Z,99041.50
2023-04-14T00:37:31.481Z,99038.06
2023-04-14T00:39:59.425Z,99032.56
2023-04-14T00:42:27.252Z,99035.19
2023-04-14T00:44:54.874Z,99030.22
2023-04-14T00:47:23.781Z,99032.47
2023-04-14T00:49:52.803Z,99025.06
2023-04-14T00:52:23.918Z,99019.44
2023-04-14T00:54:51.801Z,99016.97
2023-04-14T00:57:20.003Z,99024.50
2023-04-14T00:59:47.711Z,99027.53
2023-04-14T01:02:15.417Z,99022.59
2023-04-14T01:04:53.739Z,99024.44
2023-04-14T01:07:25.512Z,99024.84
2023-04-14T01:09:55.779Z,99026.69
2023-04-14T01:12:32.519Z,99030.09
2023-04-14T01:15:09.904Z,99034.22
2023-04-14T01:17:45.791Z,99037.91
2023-04-14T01:20:20.704Z,99043.97
2023-04-14T01:22:54.658Z,99039.34
2023-04-14T01:25:43.752Z,99045.41
2023-04-14T01:28:29.108Z,99044.06
2023-04-14T01:31:07.251Z,99055.94
2023-04-14T01:33:39.616Z,99046.47
2023-04-14T01:36:11.271Z,99049.09
2023-04-14T01:38:41.960Z,99037.53
2023-04-14T01:41:12.299Z,99044.56
2023-04-14T01:43:43.270Z,99039.88
2023-04-14T01:46:15.447Z,99042.78
2023-04-14T01:48:46.183Z,99047.72
2023-04-14T01:51:18.461Z,99047.88
2023-04-14T01:53:47.410Z,99045.25
2023-04-14T01:56:17.396Z,99051.00
2023-04-14T01:58:47.594Z,99051.72
2023-04-14T02:01:17.229Z,99051.56
2023-04-14T02:03:49.434Z,99057.38
2023-04-14T02:06:18.999Z,99067.53
2023-04-14T02:08:47.800Z,99059.56
2023-04-14T02:11:16.829Z,99066.44
2023-04-14T02:13:44.877Z,99074.16
2023-04-14T02:16:13.812Z,99068.09
2023-04-14T02:18:42.480Z,99069.47
2023-04-14T02:21:14.576Z,99076.63
2023-04-14T02:23:42.301Z,99077.72
2023-04-14T02:26:17.892Z,99073.06
2023-04-14T02:28:51.466Z,99075.81
2023-04-14T02:31:23.855Z,99073.59
2023-04-14T02:33:55.658Z,99081.44
2023-04-14T02:36:32.310Z,99082.16
2023-04-14T02:39:03.551Z,99080.63
2023-04-14T02:41:32.484Z,99079.94
2023-04-14T02:44:06.336Z,99084.34
2023-04-14T02:46:38.533Z,99087.38
2023-04-14T02:49:07.875Z,99086.00
2023-04-14T02:51:39.671Z,99088.19
2023-04-14T02:54:08.022Z,99083.53
2023-04-14T02:56:36.447Z,99081.31
2023-04-14T02:59:05.457Z,99099.06
2023-04-14T03:01:34.748Z,99092.63
2023-04-14T03:04:03.352Z,99091.78
2023-04-14T03:06:33.171Z,99101.41
2023-04-14T03:09:03.367Z,99099.22
2023-04-14T03:11:32.714Z,99103.06
2023-04-14T03:14:01.299Z,99097.16
2023-04-14T03:16:30.710Z,99095.50
2023-04-14T03:18:59.492Z,99095.09
2023-04-14T03:21:28.579Z,99087.09
2023-04-14T03:23:57.166Z,99083.41
2023-04-14T03:26:28.525Z,99087.38
2023-04-14T03:28:58.203Z,99090.53
2023-04-14T03:31:32.836Z,99089.03
2023-04-14T03:34:04.059Z,99090.13
2023-04-14T03:36:32.845Z,99085.75
2023-04-14T03:39:03.307Z,99083.53
2023-04-14T03:41:36.047Z,99085.34
2023-04-14T03:44:05.699Z,99075.84
2023-04-14T03:46:33.451Z,99086.41
2023-04-14T03:49:06.756Z,99082.16
2023-04-14T03:51:36.178Z,99082.56
2023-04-14T03:54:06.831Z,99079.00
2023-04-14T03:56:41.093Z,99080.22
2023-04-14T03:59:12.517Z,99084.22
2023-04-14T04:01:42.031Z,99082.44
2023-04-14T04:04:11.083Z,99087.38
2023-04-14T04:06:40.727Z,99087.13
2023-04-14T04:09:10.400Z,99079.13
2023-04-14T04:11:41.290Z,99090.94
2023-04-14T04:14:10.762Z,99095.91
2023-04-14T04:16:41.293Z,99081.03
2023-04-14T04:19:11.607Z,99095.09
2023-04-14T04:21:41.668Z,99090.66
2023-04-14T04:24:11.408Z,99094.38
2023-04-14T04:26:40.702Z,99092.88
2023-04-14T04:29:09.023Z,99100.03
2023-04-14T04:31:37.275Z,99106.63
2023-04-14T04:34:06.965Z,99100.03
2023-04-14T04:36:35.877Z,99110.38
2023-04-14T04:39:04.343Z,99115.03
2023-04-14T04:41:32.432Z,99108.28
2023-04-14T04:44:01.764Z,99114.47
2023-04-14T04:46:54.089Z,99116.81
2023-04-14T04:49:22.715Z,99122.88
2023-04-14T04:51:50.680Z,99114.75
2023-04-14T04:54:18.614Z,99121.94
2023-04-14T04:56:46.359Z,99125.06
2023-04-14T04:59:15.473Z,99126.72
2023-04-14T05:01:43.247Z,99130.44
2023-04-14T05:04:11.670Z,99134.31
2023-04-14T05:06:39.399Z,99142.97
2023-04-14T05:09:07.621Z,99140.69
2023-04-14T05:11:35.537Z,99138.00
2023-04-14T05:14:03.677Z,99140.72
2023-04-14T05:16:33.413Z,99140.84
2023-04-14T05:19:01.457Z,99139.28
2023-04-14T05:21:29.497Z,99129.06
2023-04-14T05:23:57.361Z,99133.47
2023-04-14T05:28:55.766Z,99148.44
2023-04-14T05:31:23.576Z,99142.47
2023-04-14T05:33:52.603Z,99136.41
2023-04-14T05:36:20.708Z,99140.25
2023-04-14T05:38:48.385Z,99137.03
2023-04-14T05:41:16.336Z,99139.09
2023-04-14T05:43:44.003Z,99137.72
2023-04-14T05:46:13.522Z,99140.38
2023-04-14T05:48:41.505Z,99148.22
2023-04-14T05:51:10.521Z,99139.78
2023-04-14T05:53:38.156Z,99138.59
2023-04-14T05:56:06.466Z,99133.28
2023-04-14T05:58:34.245Z,99141.31
2023-04-14T06:01:03.907Z,99140.31
2023-04-14T06:03:31.780Z,99144.19
2023-04-14T06:05:59.590Z,99136.88
2023-04-14T06:08:30.319Z,99143.63
2023-04-14T06:10:57.931Z,99139.09
2023-04-14T06:13:25.752Z,99142.78
2023-04-14T06:15:53.730Z,99143.56
2023-04-14T06:18:22.750Z,99133.19
2023-04-14T06:20:50.493Z,99136.50
2023-04-14T06:23:18.260Z,99133.91
2023-04-14T06:25:47.921Z,99135.72
2023-04-14T06:28:15.677Z,99133.09
2023-04-14T06:30:43.414Z,99133.22
2023-04-14T06:33:11.494Z,99129.91
2023-04-14T06:35:39.358Z,99135.84
2023-04-14T06:38:07.199Z,99130.69
2023-04-14T06:40:34.868Z,99129.28
2023-04-14T06:43:04.144Z,99127.66
2023-04-14T06:45:31.970Z,99135.50
2023-04-14T06:47:59.801Z,99128.56
2023-04-14T06:50:27.509Z,99122.50
2023-04-14T06:52:55.307Z,99129.78
2023-04-14T06:55:23.069Z,99122.38
2023-04-14T06:57:50.738Z,99124.94
2023-04-14T07:00:20.358Z,99126.78
2023-04-14T07:02:48.174Z,99118.44
2023-04-14T07:05:17.245Z,99121.44
2023-04-14T07:07:45.068Z,99121.66
2023-04-14T07:10:12.805Z,99115.03
2023-04-14T07:12:40.434Z,99108.06
2023-04-14T07:15:09.218Z,99104.16
2023-04-14T07:17:38.334Z,99111.56
2023-04-14T07:20:07.272Z,99107.00
2023-04-14T07:22:35.042Z,99111.91
2023-04-14T07:25:02.833Z,99114.91
2023-04-14T07:27:31.783Z,99112.84
2023-04-14T07:29:59.655Z,99109.06
2023-04-14T07:32:27.429Z,99113.63
2023-04-14T07:34:59.099Z,99109.13
2023-04-14T07:37:27.228Z,99098.41
2023-04-14T07:39:54.874Z,99098.63
2023-04-14T07:42:22.574Z,99097.47
2023-04-14T07:44:51.854Z,99100.31
2023-04-14T07:47:19.580Z,99100.69
2023-04-14T07:49:47.319Z,99098.50
2023-04-14T07:52:16.594Z,99094.91
2023-04-14T07:54:45.764Z,99091.16
2023-04-14T07:57:14.159Z,99088.19
2023-04-14T07:59:42.869Z,99085.38
2023-04-14T08:02:11.426Z,99082.75
2023-04-14T08:04:39.329Z,99078.59
2023-04-14T08:07:07.524Z,99076.81
2023-04-14T08:09:36.474Z,99083.22
2023-04-14T08:12:04.342Z,99084.63
2023-04-14T08:14:31.945Z,99090.78
2023-04-14T08:16:59.629Z,99098.31
2023-04-14T08:19:27.447Z,99092.03
2023-04-14T08:21:55.665Z,99093.97
2023-04-14T08:24:23.324Z,99094.53
2023-04-14T08:26:52.548Z,99090.38
2023-04-14T08:29:21.289Z,99092.13
2023-04-14T08:31:48.964Z,99103.41
2023-04-14T08:34:21.133Z,99093.16
2023-04-14T08:36:56.518Z,99090.47
2023-04-14T08:39:24.495Z,99093.09
2023-04-14T08:41:54.518Z,99087.16
2023-04-14T08:44:22.944Z,99096.25
2023-04-14T08:46:52.611Z,99086.03
2023-04-14T08:49:29.490Z,99080.75
2023-04-14T08:51:59.802Z,99083.06
2023-04-14T08:54:28.430Z,99080.31
2023-04-14T08:56:58.634Z,99083.22
2023-04-14T08:59:28.633Z,99085.91
2023-04-14T09:01:57.003Z,99072.31
2023-04-14T09:04:25.835Z,99075.66
2023-04-14T09:06:54.015Z,99073.97
2023-04-14T09:09:22.294Z,99069.50
2023-04-14T09:11:51.263Z,99068.00
2023-04-14T09:14:20.871Z,99067.16
2023-04-14T09:16:51.455Z,99068.44
2023-04-14T09:19:19.364Z,99070.50
2023-04-14T09:21:51.397Z,99060.38
2023-04-14T09:24:23.930Z,99061.00
2023-04-14T09:26:52.043Z,99053.16
2023-04-14T09:29:21.158Z,99051.31
2023-04-14T09:31:49.187Z,99050.72
2023-04-14T09:34:18.740Z,99054.00
2023-04-14T09:37:02.372Z,99048.41
2023-04-14T09:39:31.259Z,99059.25
2023-04-14T09:41:59.522Z,99047.31
2023-04-14T09:44:28.820Z,99049.97
2023-04-14T09:47:01.311Z,99045.16
2023-04-14T09:49:29.994Z,99045.63
2023-04-14T09:52:05.562Z,99041.38
2023-04-14T09:54:33.381Z,99041.44
2023-04-14T09:57:01.234Z,99046.59
2023-04-14T09:59:34.402Z,99036.91
2023-04-14T10:02:06.088Z,99040.78
2023-04-14T10:04:34.348Z,99037.56
2023-04-14T10:07:02.716Z,99031.63
2023-04-14T10:09:31.042Z,99027.44
2023-04-14T10:12:10.598Z,99025.03
2023-04-14T10:14:40.549Z,99015.78
2023-04-14T10:17:08.559Z,99010.13
2023-04-14T10:19:37.749Z,99017.31
2023-04-14T10:22:06.691Z,99008.59
2023-04-14T10:24:34.570Z,98997.13
2023-04-14T10:27:04.807Z,99011.66
2023-04-14T10:29:32.716Z,99009.66
2023-04-14T10:32:06.168Z,99010.50
2023-04-14T10:34:34.658Z,99014.06
2023-04-14T10:37:15.722Z,99005.25
2023-04-14T10:39:43.907Z,99006.94
2023-04-14T10:42:11.771Z,98997.59
2023-04-14T10:44:40.132Z,99002.06
2023-04-14T10:47:09.336Z,98987.09
2023-04-14T10:49:38.364Z,98993.31
2023-04-14T10:52:08.116Z,98997.00
2023-04-14T10:54:50.380Z,98991.84
2023-04-14T10:57:19.179Z,98992.41
2023-04-14T10:59:48.528Z,98994.84
2023-04-14T11:02:29.865Z,98992.13
2023-04-14T11:05:04.783Z,98992.09
2023-04-14T11:07:38.125Z,98988.38
2023-04-14T11:10:27.707Z,98990.84
2023-04-14T11:12:57.606Z,98980.22
2023-04-14T11:15:25.565Z,98973.63
2023-04-14T11:17:55.424Z,98979.19
2023-04-14T11:20:23.933Z,98974.53
2023-04-14T11:22:54.058Z,98978.91
2023-04-14T11:25:24.756Z,98971.53
2023-04-14T11:27:53.113Z,98966.53
2023-04-14T11:30:22.391Z,98970.19
2023-04-14T11:32:51.762Z,98964.75
2023-04-14T11:35:22.027Z,98969.97
2023-04-14T11:37:49.775Z,98970.72
2023-04-14T11:40:17.411Z,98963.94
2023-04-14T11:42:46.487Z,98957.47
2023-04-14T11:45:16.307Z,98957.84
2023-04-14T11:47:48.989Z,98956.53
2023-04-14T11:50:18.482Z,98955.94
2023-04-14T11:52:48.706Z,98950.28
2023-04-14T11:55:17.602Z,98939.78
2023-04-14T11:57:46.094Z,98942.50
2023-04-14T12:00:14.900Z,98934.66
2023-04-14T12:02:45.290Z,98933.00
2023-04-14T12:05:14.924Z,98922.78
2023-04-14T12:07:44.493Z,98924.97
2023-04-14T12:10:13.648Z,98927.16
2023-04-14T12:12:41.628Z,98924.09
2023-04-14T12:15:10.594Z,98918.09
2023-04-14T12:17:38.707Z,98912.22
2023-04-14T12:20:07.790Z,98921.78
2023-04-14T12:22:35.747Z,98906.97
2023-04-14T12:25:13.407Z,98907.47
2023-04-14T12:27:41.195Z,98904.88
2023-04-14T12:30:10.656Z,98913.13
2023-04-14T12:32:42.004Z,98902.41
2023-04-14T12:35:10.902Z,98902.50
2023-04-14T12:37:41.327Z,98908.66
2023-04-14T12:40:11.398Z,98899.06
2023-04-14T12:42:49.627Z,98903.19
2023-04-14T12:45:18.130Z,98895.22
2023-04-14T12:47:56.681Z,98890.16
2023-04-14T12:50:28.012Z,98891.88
2023-04-14T12:52:56.850Z,98891.34
2023-04-14T12:55:27.481Z,98877.72
2023-04-14T12:57:57.223Z,98888.59
2023-04-14T13:00:27.094Z,98879.25
2023-04-14T13:02:55.547Z,98873.72
2023-04-14T13:05:23.924Z,98870.38
2023-04-14T13:07:51.584Z,98872.91
2023-04-14T13:10:19.703Z,98873.84
2023-04-14T13:12:47.399Z,98868.75
2023-04-14T13:15:32.586Z,98870.84
2023-04-14T13:18:04.500Z,98859.19
2023-04-14T13:20:32.412Z,98852.31
2023-04-14T13:23:00.048Z,98853.59
2023-04-14T13:25:27.754Z,98844.69
2023-04-14T13:27:55.433Z,98839.66
2023-04-14T13:30:24.553Z,98842.75
2023-04-14T13:32:52.665Z,98842.25
2023-04-14T13:35:20.506Z,98836.34
2023-04-14T13:37:48.483Z,98830.50
2023-04-14T13:40:16.697Z,98828.44
2023-04-14T13:42:45.372Z,98825.00
2023-04-14T13:45:13.021Z,98820.72
2023-04-14T13:47:42.156Z,98824.25
2023-04-14T13:50:10.674Z,98824.50
2023-04-14T13:52:38.451Z,98817.50
2023-04-14T13:55:06.817Z,98819.16
2023-04-14T13:57:34.431Z,98813.31
2023-04-14T14:00:02.163Z,98811.69
2023-04-14T14:02:30.172Z,98814.28
2023-04-14T14:04:59.533Z,98802.41
2023-04-14T14:07:27.664Z,98807.75
2023-04-14T14:09:55.571Z,98800.88
2023-04-14T14:12:23.592Z,98797.25
2023-04-14T14:14:51.319Z,98793.47
2023-04-14T14:17:19.090Z,98798.97
2023-04-14T14:19:46.902Z,98792.44
2023-04-14T14:22:16.053Z,98785.78
2023-04-14T14:24:43.720Z,98795.84
2023-04-14T14:27:12.326Z,98788.03
2023-04-14T14:29:40.103Z,98790.31
2023-04-14T14:32:07.741Z,98787.38
2023-04-14T14:34:35.469Z,98775.78
2023-04-14T14:37:03.133Z,98774.81
2023-04-14T14:39:32.603Z,98770.44
2023-04-14T14:42:00.437Z,98765.53
2023-04-14T14:44:28.169Z,98763.28
2023-04-14T14:46:56.648Z,98766.44
2023-04-14T14:49:24.397Z,98758.16
2023-04-14T14:51:52.197Z,98757.72
2023-04-14T14:54:19.959Z,98759.03
2023-04-14T14:56:48.974Z,98756.31
2023-04-14T14:59:16.691Z,98753.22
2023-04-14T15:01:46.128Z,98751.59
2023-04-14T15:04:14.162Z,98748.84
2023-04-14T15:06:41.808Z,98747.72
2023-04-14T15:09:10.245Z,98749.97
2023-04-14T15:11:37.905Z,98748.94
2023-04-14T15:14:08.152Z,98746.78
2023-04-14T15:16:35.883Z,98749.34
2023-04-14T15:19:04.048Z,98749.34
2023-04-14T15:21:32.662Z,98749.69
2023-04-14T15:24:00.849Z,98746.56
2023-04-14T15:26:28.862Z,98743.56
2023-04-14T15:28:56.497Z,98741.13
2023-04-14T15:31:25.628Z,98735.34
2023-04-14T15:33:54.720Z,98731.38
2023-04-14T15:36:22.776Z,98732.69
2023-04-14T15:38:50.745Z,98731.38
2023-04-14T15:41:18.740Z,98736.16
2023-04-14T15:43:46.550Z,98736.38
2023-04-14T15:46:14.880Z,98737.13
2023-04-14T15:48:44.113Z,98742.66
2023-04-14T15:51:11.945Z,98736.41
2023-04-14T15:53:39.530Z,98739.81
2023-04-14T15:56:07.567Z,98735.28
2023-04-14T15:58:35.386Z,98743.56
2023-04-14T16:01:07.615Z,98743.63
2023-04-14T16:03:37.883Z,98734.34
2023-04-14T16:06:08.187Z,98739.09
2023-04-14T16:08:36.357Z,98738.53
2023-04-14T16:11:04.078Z,98741.56
2023-04-14T16:13:31.795Z,98746.84
2023-04-14T16:15:59.599Z,98742.31
2023-04-14T16:18:27.531Z,98736.13
2023-04-14T16:20:55.281Z,98743.22
2023-04-14T16:23:24.585Z,98748.44
2023-04-14T16:25:52.517Z,98754.03
2023-04-14T16:28:21.831Z,98754.16
2023-04-14T16:30:49.739Z,98761.88
2023-04-14T16:33:17.407Z,98760.44
2023-04-14T16:35:45.140Z,98755.44
2023-04-14T16:38:12.979Z,98756.47
2023-04-14T16:40:42.783Z,98762.41
2023-04-14T16:43:10.502Z,98755.34
2023-04-14T16:45:38.231Z,98759.25
2023-04-14T16:48:06.221Z,98757.63
2023-04-14T16:50:38.096Z,98751.03
2023-04-14T16:53:05.754Z,98758.22
2023-04-14T16:55:34.959Z,98756.69
2023-04-14T16:58:04.418Z,98753.56
2023-04-14T17:00:32.541Z,98751.47
2023-04-14T17:03:00.543Z,98751.22
2023-04-14T17:05:28.404Z,98749.81
2023-04-14T17:07:56.156Z,98750.00
2023-04-14T17:10:26.170Z,98745.19
2023-04-14T17:12:54.354Z,98740.84
2023-04-14T17:15:23.584Z,98746.56
2023-04-14T17:17:51.371Z,98750.84
2023-04-14T17:20:19.989Z,98749.44
2023-04-14T17:22:50.160Z,98746.19
2023-04-14T17:25:20.564Z,98741.09
2023-04-14T17:27:48.822Z,98745.25
2023-04-14T17:30:16.500Z,98760.38
2023-04-14T17:32:45.938Z,98749.28
2023-04-14T17:35:13.863Z,98747.56
2023-04-14T17:37:41.669Z,98753.44
2023-04-14T17:40:10.711Z,98757.72
2023-04-14T17:42:38.868Z,98755.72
2023-04-14T17:45:08.945Z,98756.31
2023-04-14T17:47:38.061Z,98763.81
2023-04-14T17:50:09.212Z,98765.78
2023-04-14T17:52:37.338Z,98757.16
2023-04-14T17:55:07.113Z,98761.78
2023-04-14T17:57:34.746Z,98763.47
2023-04-14T18:00:04.058Z,98759.03
2023-04-14T18:02:32.986Z,98760.69
2023-04-14T18:05:01.432Z,98762.28
2023-04-14T18:07:31.449Z,98757.97
2023-04-14T18:09:59.507Z,98757.81
2023-04-14T18:12:27.648Z,98757.09
2023-04-14T18:14:55.324Z,98758.53
2023-04-14T18:17:23.605Z,98765.28
2023-04-14T18:19:51.384Z,98769.66
2023-04-14T18:22:19.446Z,98770.50
2023-04-14T18:24:48.643Z,98771.72
2023-04-14T18:29:47.690Z,98779.41
2023-04-14T18:32:15.496Z,98772.84
2023-04-14T18:34:43.146Z,98781.75
2023-04-14T18:37:10.965Z,98781.72
2023-04-14T18:39:38.701Z,98784.31
2023-04-14T18:42:07.826Z,98784.72
2023-04-14T18:44:35.619Z,98780.22
2023-04-14T18:47:03.500Z,98785.31
2023-04-14T18:49:31.319Z,98779.06
2023-04-14T18:51:59.175Z,98798.81
2023-04-14T18:54:27.028Z,98785.06
2023-04-14T18:56:54.934Z,98788.84
2023-04-14T18:59:26.100Z,98787.22
2023-04-14T19:01:54.057Z,98793.31
2023-04-14T19:04:22.050Z,98791.72
2023-04-14T19:06:50.406Z,98795.81
2023-04-14T19:09:18.478Z,98798.41
2023-04-14T19:11:47.881Z,98799.97
2023-04-14T19:14:15.897Z,98800.84
2023-04-14T19:16:45.265Z,98807.94
2023-04-14T19:19:13.088Z,98807.88
2023-04-14T19:21:40.862Z,98819.19
2023-04-14T19:24:08.751Z,98813.22
2023-04-14T19:26:40.588Z,98820.50
2023-04-14T19:29:08.506Z,98815.88
2023-04-14T19:31:36.862Z,98816.34
2023-04-14T19:34:06.141Z,98827.69
2023-04-14T19:36:34.369Z,98824.53
2023-04-14T19:39:03.918Z,98823.31
2023-04-14T19:41:32.265Z,98826.50
2023-04-14T19:44:00.204Z,98825.28
2023-04-14T19:46:28.298Z,98826.34
2023-04-14T19:48:56.763Z,98826.72
2023-04-14T19:51:27.443Z,98821.94
2023-04-14T19:53:55.241Z,98823.13
2023-04-14T19:56:23.462Z,98825.22
2023-04-14T19:58:51.851Z,98829.94
2023-04-14T20:01:20.781Z,98828.34
2023-04-14T20:04:07.633Z,98830.06
2023-04-14T20:06:38.131Z,98825.50
2023-04-14T20:09:06.490Z,98824.22
2023-04-14T20:11:34.195Z,98831.28
2023-04-14T20:14:02.688Z,98820.75
2023-04-14T20:16:30.530Z,98823.06
2023-04-14T20:18:58.206Z,98824.91
2023-04-14T20:21:25.909Z,98820.00
2023-04-14T20:23:54.957Z,98823.47
2023-04-14T20:26:23.393Z,98820.69
2023-04-14T20:28:51.093Z,98826.38
2023-04-14T20:31:19.126Z,98823.06
2023-04-14T20:33:47.174Z,98819.16
2023-04-14T20:36:16.323Z,98821.50
2023-04-14T20:38:43.971Z,98816.22
2023-04-14T20:41:12.931Z,98814.94
2023-04-14T20:43:43.416Z,98824.19
2023-04-14T20:46:11.148Z,98825.78
2023-04-14T20:48:38.943Z,98819.56
2023-04-14T20:51:06.666Z,98823.72
2023-04-14T20:53:35.084Z,98821.44
2023-04-14T20:56:03.058Z,98822.13
2023-04-14T20:58:32.070Z,98823.78
2023-04-14T21:01:00.238Z,98827.59
2023-04-14T21:03:29.137Z,98825.28
2023-04-14T21:05:57.074Z,98832.34
2023-04-14T21:08:24.840Z,98820.75
2023-04-14T21:11:16.031Z,98824.16
2023-04-14T21:15:29.876Z,98833.53
2023-04-14T21:16:29.947Z,98826.63
2023-04-14T21:18:57.747Z,98822.19
2023-04-14T21:21:26.153Z,98826.97
2023-04-14T21:23:53.928Z,98823.88
2023-04-14T21:26:21.934Z,98833.91
2023-04-14T21:28:51.278Z,98832.56
2023-04-14T21:31:18.917Z,98827.81
2023-04-14T21:33:46.906Z,98829.31
2023-04-14T21:36:14.615Z,98827.66
2023-04-14T21:38:42.929Z,98825.66
2023-04-14T21:41:10.980Z,98827.97
2023-04-14T21:43:39.933Z,98824.66
2023-04-14T21:46:10.025Z,98825.66
2023-04-14T21:48:37.877Z,98828.59
2023-04-14T21:51:05.637Z,98816.78
2023-04-14T21:53:33.569Z,98824.31
2023-04-14T21:56:10.260Z,98820.72
2023-04-14T21:58:39.133Z,98825.28
2023-04-14T22:01:07.741Z,98820.66
2023-04-14T22:03:38.796Z,98822.19
2023-04-14T22:06:07.250Z,98830.03
2023-04-14T22:08:34.949Z,98830.81
2023-04-14T22:11:02.760Z,98831.78
2023-04-14T22:13:30.755Z,98816.88
2023-04-14T22:15:58.423Z,98819.03
2023-04-14T22:18:27.653Z,98820.63
2023-04-14T22:20:57.275Z,98823.56
2023-04-14T22:23:25.221Z,98825.47
2023-04-14T22:25:53.178Z,98826.00
2023-04-14T22:28:20.890Z,98827.13
2023-04-14T22:30:49.070Z,98832.00
2023-04-14T22:33:16.882Z,98829.03
2023-04-14T22:35:44.940Z,98839.66
2023-04-14T22:38:13.988Z,98832.28
2023-04-14T22:40:42.271Z,98833.22
2023-04-14T22:43:10.799Z,98837.31
2023-04-14T22:45:39.353Z,98839.41
2023-04-14T22:48:08.800Z,98837.47
2023-04-14T22:50:36.795Z,98842.34
2023-04-14T22:53:04.844Z,98842.97
2023-04-14T22:55:34.387Z,98842.34
2023-04-14T22:58:02.181Z,98844.44
2023-04-14T23:00:30.191Z,98842.28
2023-04-14T23:02:59.462Z,98850.84
2023-04-14T23:05:27.355Z,98846.50
2023-04-14T23:07:55.891Z,98848.28
2023-04-14T23:10:24.016Z,98846.69
2023-04-14T23:12:53.088Z,98844.41
2023-04-14T23:15:21.579Z,98844.22
2023-04-14T23:17:49.341Z,98843.22
2023-04-14T23:20:19.135Z,98839.44
2023-04-14T23:22:46.936Z,98842.38
2023-04-14T23:25:15.703Z,98843.16
2023-04-14T23:27:43.473Z,98843.91
2023-04-14T23:30:13.141Z,98856.16
2023-04-14T23:32:40.922Z,98856.03
2023-04-14T23:35:10.286Z,98855.06
2023-04-14T23:37:38.853Z,98857.44
2023-04-14T23:40:08.064Z,98858.31
2023-04-14T23:42:35.731Z,98858.06
2023-04-14T23:45:03.426Z,98848.69
2023-04-14T23:47:32.549Z,98845.41
2023-04-14T23:50:00.256Z,98847.97
2023-04-14T23:52:28.072Z,98845.63
2023-04-14T23:54:55.771Z,98840.38
2023-04-14T23:57:24.564Z,98838.78
2023-04-14T23:59:52.869Z,98839.97
